Time;durP1;ratioP1;P1;durP2;ratioP2;P2;SDS_P1;SDS_P2;PMS_P1;PMS_P2;Temp;Humidity;BMP_temperature;BMP_pressure;BME280_temperature;BME280_humidity;BME280_pressure;Samples;Min_cycle;Max_cycle;Signal;HPM_P1;HPM_P2
2023/11/06 00:02:38;;;;;;;;;;;;;;;;;;6285223;28;20011;-87
2023/11/06 00:05:38;;;;;;;;;;;;;;;;;;6288215;28;20007;-87
2023/11/06 00:08:38;;;;;;;;;;;;;;;;;;6295271;28;19919;-79
2023/11/06 00:11:39;;;;;;;;;;;;;;;;;;6290516;28;19960;-79
2023/11/06 00:14:39;;;;;;;;;;;;;;;;;;6274570;28;19923;-79
2023/11/06 00:17:39;;;;;;;;;;;;;;;;;;6284327;28;19913;-79
2023/11/06 00:20:39;;;;;;;;;;;;;;;;;;6279904;28;20055;-79
2023/11/06 00:23:39;;;;;;;;;;;;;;;;;;6277892;28;19912;-79
2023/11/06 00:26:39;;;;;;;;;;;;;;;;;;6278801;28;19916;-79
2023/11/06 00:29:39;;;;;;;;;;;;;;;;;;6296198;28;20335;-79
2023/11/06 00:32:39;;;;;;;;;;;;;;;;;;6279222;28;20301;-79
2023/11/06 00:35:39;;;;;;;;;;;;;;;;;;6282233;28;19924;-79
2023/11/06 00:38:40;;;;;;;;;;;;;;;;;;6276791;28;20015;-79
2023/11/06 00:41:40;;;;;;;;;;;;;;;;;;6278555;28;19923;-79
2023/11/06 00:44:40;;;;;;;;;;;;;;;;;;6278428;28;19912;-79
2023/11/06 00:47:40;;;;;;;;;;;;;;;;;;6281299;28;20117;-79
2023/11/06 00:50:41;;;;;;;;;;;;;;;;;;6282406;28;19917;-79
2023/11/06 00:53:41;;;;;;;;;;;;;;;;;;6276743;28;19920;-79
2023/11/06 00:56:41;;;;;;;;;;;;;;;;;;6280971;28;19920;-79
2023/11/06 00:59:41;;;;;;;;;;;;;;;;;;6281232;28;20320;-79
2023/11/06 01:02:41;;;;;;;;;;;;;;;;;;6298826;28;20289;-78
2023/11/06 01:05:42;;;;;;;;;;;;;;;;;;6273046;28;20384;-79
2023/11/06 01:08:42;;;;;;;;;;;;;;;;;;6275504;28;19923;-81
2023/11/06 01:11:42;;;;;;;;;;;;;;;;;;6281015;28;19923;-79
2023/11/06 01:14:42;;;;;;;;;;;;;;;;;;6279002;28;20000;-79
2023/11/06 01:17:43;;;;;;;;;;;;;;;;;;6301573;28;19912;-87
2023/11/06 01:20:43;;;;;;;;;;;;;;;;;;6279237;28;19920;-86
2023/11/06 01:23:43;;;;;;;;;;;;;;;;;;6284746;28;19960;-86
2023/11/06 01:26:43;;;;;;;;;;;;;;;;;;6283175;28;19964;-86
2023/11/06 01:29:43;;;;;;;;;;;;;;;;;;6302918;28;20011;-87
2023/11/06 01:32:43;;;;;;;;;;;;;;;;;;6286401;28;20518;-87
2023/11/06 01:35:44;;;;;;;;;;;;;;;;;;6275824;28;19916;-87
2023/11/06 01:38:44;;;;;;;;;;;;;;;;;;6278899;28;19925;-87
2023/11/06 01:41:44;;;;;;;;;;;;;;;;;;6280137;28;20411;-87
2023/11/06 01:44:44;;;;;;;;;;;;;;;;;;6281203;28;19916;-86
2023/11/06 01:47:44;;;;;;;;;;;;;;;;;;6280980;28;19916;-87
2023/11/06 01:50:45;;;;;;;;;;;;;;;;;;6274954;28;19920;-86
2023/11/06 01:53:45;;;;;;;;;;;;;;;;;;6282337;28;19986;-87
2023/11/06 01:56:45;;;;;;;;;;;;;;;;;;6278540;28;19924;-87
2023/11/06 01:59:45;;;;;;;;;;;;;;;;;;6283925;28;19921;-86
2023/11/06 02:02:45;;;;;;;;;;;;;;;;;;6283943;28;19966;-87
2023/11/06 02:05:46;;;;;;;;;;;;;;;;;;6280745;28;20262;-87
2023/11/06 02:08:46;;;;;;;;;;;;;;;;;;6280310;28;19921;-87
2023/11/06 02:11:46;;;;;;;;;;;;;;;;;;6276463;28;19932;-87
2023/11/06 02:14:46;;;;;;;;;;;;;;;;;;6276389;28;19913;-87
2023/11/06 02:17:47;;;;;;;;;;;;;;;;;;6285051;28;20337;-88
2023/11/06 02:20:47;;;;;;;;;;;;;;;;;;6273355;28;19938;-88
2023/11/06 02:23:47;;;;;;;;;;;;;;;;;;6278290;28;19923;-87
2023/11/06 02:26:47;;;;;;;;;;;;;;;;;;6280475;28;20424;-88
2023/11/06 02:29:47;;;;;;;;;;;;;;;;;;6278012;28;19912;-87
2023/11/06 02:32:47;;;;;;;;;;;;;;;;;;6278502;28;19916;-86
2023/11/06 02:35:47;;;;;;;;;;;;;;;;;;6277504;28;19921;-88
2023/11/06 02:38:47;;;;;;;;;;;;;;;;;;6276367;28;19920;-87
2023/11/06 02:41:48;;;;;;;;;;;;;;;;;;6276636;28;19912;-88
2023/11/06 02:44:49;;;;;;;;;;;;;;;;;;6276715;28;19917;-87
2023/11/06 02:47:49;;;;;;;;;;;;;;;;;;6279044;28;19912;-87
2023/11/06 02:50:49;;;;;;;;;;;;;;;;;;6293225;28;20320;-87
2023/11/06 02:53:49;;;;;;;;;;;;;;;;;;6276417;28;20015;-87
2023/11/06 02:56:49;;;;;;;;;;;;;;;;;;6277347;28;19936;-86
2023/11/06 02:59:50;;;;;;;;;;;;;;;;;;6277375;28;19920;-87
2023/11/06 03:02:50;;;;;;;;;;;;;;;;;;6277724;28;19917;-88
2023/11/06 03:05:50;;;;;;;;;;;;;;;;;;6279861;28;19920;-87
2023/11/06 03:08:50;;;;;;;;;;;;;;;;;;6280409;28;19936;-87
2023/11/06 03:11:50;;;;;;;;;;;;;;;;;;6279599;28;19940;-87
2023/11/06 03:14:51;;;;;;;;;;;;;;;;;;6275947;28;20361;-87
2023/11/06 03:17:52;;;;;;;;;;;;;;;;;;6292514;28;19943;-87
2023/11/06 03:20:52;;;;;;;;;;;;;;;;;;6278963;28;20355;-88
2023/11/06 03:23:52;;;;;;;;;;;;;;;;;;6279529;28;19939;-87
2023/11/06 03:26:52;;;;;;;;;;;;;;;;;;6276447;28;19916;-88
2023/11/06 03:29:52;;;;;;;;;;;;;;;;;;6277038;28;20344;-87
2023/11/06 03:32:52;;;;;;;;;;;;;;;;;;6284547;28;19917;-86
2023/11/06 03:35:52;;;;;;;;;;;;;;;;;;6277270;28;19943;-87
2023/11/06 03:38:53;;;;;;;;;;;;;;;;;;6276104;28;19966;-87
2023/11/06 03:41:54;;;;;;;;;;;;;;;;;;6280313;28;19924;-88
2023/11/06 03:44:54;;;;;;;;;;;;;;;;;;6284398;28;19913;-88
2023/11/06 03:47:54;;;;;;;;;;;;;;;;;;6279018;28;19920;-87
2023/11/06 03:50:55;;;;;;;;;;;;;;;;;;6289025;28;20019;-88
2023/11/06 03:53:55;;;;;;;;;;;;;;;;;;6276905;28;19916;-88
2023/11/06 03:56:55;;;;;;;;;;;;;;;;;;6279854;28;19912;-88
2023/11/06 03:59:55;;;;;;;;;;;;;;;;;;6279326;28;19919;-87
2023/11/06 04:02:55;;;;;;;;;;;;;;;;;;6276020;28;19948;-87
2023/11/06 04:05:55;;;;;;;;;;;;;;;;;;6293154;28;19912;-87
2023/11/06 04:08:56;;;;;;;;;;;;;;;;;;6277031;28;19959;-87
2023/11/06 04:11:56;;;;;;;;;;;;;;;;;;6278230;28;19932;-87
2023/11/06 04:14:56;;;;;;;;;;;;;;;;;;6276594;28;19916;-87
2023/11/06 04:17:56;;;;;;;;;;;;;;;;;;6279979;28;19913;-86
2023/11/06 04:20:56;;;;;;;;;;;;;;;;;;6287691;28;19963;-87
2023/11/06 04:23:57;;;;;;;;;;;;;;;;;;6274215;28;19912;-88
2023/11/06 04:26:57;;;;;;;;;;;;;;;;;;6277152;28;20388;-87
2023/11/06 04:29:57;;;;;;;;;;;;;;;;;;6273620;28;20364;-88
2023/11/06 04:32:57;;;;;;;;;;;;;;;;;;6282632;28;19943;-86
2023/11/06 04:35:59;;;;;;;;;;;;;;;;;;6275665;28;19924;-87
2023/11/06 04:38:59;;;;;;;;;;;;;;;;;;6280402;28;20385;-87
2023/11/06 04:41:59;;;;;;;;;;;;;;;;;;6276457;28;19919;-86
2023/11/06 04:44:59;;;;;;;;;;;;;;;;;;6297940;28;19913;-87
2023/11/06 04:47:59;;;;;;;;;;;;;;;;;;6279166;28;20439;-79
2023/11/06 04:51:00;;;;;;;;;;;;;;;;;;6278439;28;19916;-80
2023/11/06 04:54:00;;;;;;;;;;;;;;;;;;6279286;28;19916;-79
2023/11/06 04:57:00;;;;;;;;;;;;;;;;;;6277769;28;20786;-79
2023/11/06 05:00:00;;;;;;;;;;;;;;;;;;6280175;28;19963;-80
2023/11/06 05:03:00;;;;;;;;;;;;;;;;;;6303223;28;19920;-78
2023/11/06 05:06:01;;;;;;;;;;;;;;;;;;6284269;28;19913;-81
2023/11/06 05:09:01;;;;;;;;;;;;;;;;;;6281373;28;20006;-78
2023/11/06 05:12:02;;;;;;;;;;;;;;;;;;6293958;28;20313;-79
2023/11/06 05:15:03;;;;;;;;;;;;;;;;;;6274318;28;19920;-82
2023/11/06 05:18:03;;;;;;;;;;;;;;;;;;6301482;28;19924;-80
2023/11/06 05:21:03;;;;;;;;;;;;;;;;;;6281873;28;20022;-79
2023/11/06 05:24:03;;;;;;;;;;;;;;;;;;6314596;28;19920;-78
2023/11/06 05:27:04;;;;;;;;;;;;;;;;;;6319353;28;19923;-79
2023/11/06 05:30:04;;;;;;;;;;;;;;;;;;6292265;28;20023;-79
2023/11/06 05:33:05;;;;;;;;;;;;;;;;;;6277465;28;19917;-81
2023/11/06 05:36:06;;;;;;;;;;;;;;;;;;6293275;28;19917;-79
2023/11/06 05:39:07;;;;;;;;;;;;;;;;;;6280268;28;20385;-79
2023/11/06 05:42:07;;;;;;;;;;;;;;;;;;6292579;28;19955;-79
2023/11/06 05:45:07;;;;;;;;;;;;;;;;;;6298786;28;19955;-79
2023/11/06 05:48:07;;;;;;;;;;;;;;;;;;6291145;28;19912;-79
2023/11/06 05:51:08;;;;;;;;;;;;;;;;;;6297179;28;19932;-79
2023/11/06 05:54:08;;;;;;;;;;;;;;;;;;6295710;28;19999;-79
2023/11/06 05:57:08;;;;;;;;;;;;;;;;;;6298148;28;20014;-79
2023/11/06 06:00:11;;;;;;;;;;;;;;;;;;6298247;28;19943;-88
2023/11/06 06:03:11;;;;;;;;;;;;;;;;;;6298191;28;19913;-88
2023/11/06 06:06:12;;;;;;;;;;;;;;;;;;6296376;28;19919;-88
2023/11/06 06:09:16;;;;;;;;;;;;;;;;;;6307251;28;20494;-88
2023/11/06 06:12:16;;;;;;;;;;;;;;;;;;6295044;28;19912;-88
2023/11/06 06:15:17;;;;;;;;;;;;;;;;;;6298855;28;19974;-88
2023/11/06 06:18:17;;;;;;;;;;;;;;;;;;6296022;28;19939;-88
2023/11/06 06:21:17;;;;;;;;;;;;;;;;;;6293428;28;19916;-87
2023/11/06 06:24:17;;;;;;;;;;;;;;;;;;6290796;28;19917;-88
2023/11/06 06:27:17;;;;;;;;;;;;;;;;;;6297727;28;19908;-87
2023/11/06 06:30:17;;;;;;;;;;;;;;;;;;6296012;28;19962;-88
2023/11/06 06:33:18;;;;;;;;;;;;;;;;;;6295890;28;19920;-87
2023/11/06 06:36:20;;;;;;;;;;;;;;;;;;6291095;28;20645;-87
2023/11/06 06:39:21;;;;;;;;;;;;;;;;;;6275385;28;19921;-87
2023/11/06 06:42:21;;;;;;;;;;;;;;;;;;6281768;28;19916;-89
2023/11/06 06:45:21;;;;;;;;;;;;;;;;;;6275638;28;19987;-87
2023/11/06 06:48:21;;;;;;;;;;;;;;;;;;6281136;28;19921;-87
2023/11/06 06:51:21;;;;;;;;;;;;;;;;;;6273663;28;19920;-88
2023/11/06 06:54:21;;;;;;;;;;;;;;;;;;6278595;28;19928;-87
2023/11/06 06:57:21;;;;;;;;;;;;;;;;;;6280173;28;20281;-88
2023/11/06 07:00:21;;;;;;;;;;;;;;;;;;6276096;28;20384;-87
2023/11/06 07:03:22;;;;;;;;;;;;;;;;;;6279644;28;19917;-83
2023/11/06 07:06:23;;;;;;;;;;;;;;;;;;6272596;28;19916;-82
2023/11/06 07:09:25;;;;;;;;;;;;;;;;;;6289346;28;19920;-85
2023/11/06 07:12:26;;;;;;;;;;;;;;;;;;6285880;28;19916;-79
2023/11/06 07:15:26;;;;;;;;;;;;;;;;;;6288057;28;20376;-82
2023/11/06 07:18:26;;;;;;;;;;;;;;;;;;6284479;28;21852;-82
2023/11/06 07:21:26;;;;;;;;;;;;;;;;;;6277456;28;19913;-84
2023/11/06 07:24:27;;;;;;;;;;;;;;;;;;6273250;28;20051;-79
2023/11/06 07:27:27;;;;;;;;;;;;;;;;;;6272618;28;20289;-79
2023/11/06 07:30:27;;;;;;;;;;;;;;;;;;6274455;28;19912;-79
2023/11/06 07:33:28;;;;;;;;;;;;;;;;;;6275362;28;19916;-78
2023/11/06 07:36:28;;;;;;;;;;;;;;;;;;6274560;28;20297;-80
2023/11/06 07:39:28;;;;;;;;;;;;;;;;;;6294192;28;20369;-78
2023/11/06 07:42:28;;;;;;;;;;;;;;;;;;6296867;28;20002;-78
2023/11/06 07:45:28;;;;;;;;;;;;;;;;;;6279027;28;20261;-78
2023/11/06 07:48:28;;;;;;;;;;;;;;;;;;6275079;28;20411;-78
2023/11/06 07:51:28;;;;;;;;;;;;;;;;;;6273233;28;19969;-79
2023/11/06 07:54:28;;;;;;;;;;;;;;;;;;6273590;28;19921;-80
2023/11/06 07:57:28;;;;;;;;;;;;;;;;;;6274414;28;19959;-78
2023/11/06 08:00:29;;;;;;;;;;;;;;;;;;6291471;28;20004;-78
2023/11/06 08:03:30;;;;;;;;;;;;;;;;;;6277162;28;19971;-78
2023/11/06 08:06:30;;;;;;;;;;;;;;;;;;6281853;28;19959;-79
2023/11/06 08:09:30;;;;;;;;;;;;;;;;;;6291590;28;19913;-79
2023/11/06 08:12:30;;;;;;;;;;;;;;;;;;6309647;28;20404;-79
2023/11/06 08:15:30;;;;;;;;;;;;;;;;;;6272219;28;19920;-79
2023/11/06 08:18:30;;;;;;;;;;;;;;;;;;6272150;28;19964;-78
2023/11/06 08:21:30;;;;;;;;;;;;;;;;;;6273448;28;19909;-80
2023/11/06 08:24:31;;;;;;;;;;;;;;;;;;6284692;28;19912;-79
2023/11/06 08:27:32;;;;;;;;;;;;;;;;;;6296261;28;19908;-79
2023/11/06 08:30:32;;;;;;;;;;;;;;;;;;6296988;28;19913;-79
2023/11/06 08:33:32;;;;;;;;;;;;;;;;;;6298218;28;19947;-78
2023/11/06 08:36:33;;;;;;;;;;;;;;;;;;6301482;28;19908;-79
2023/11/06 08:39:33;;;;;;;;;;;;;;;;;;6288611;28;19924;-79
2023/11/06 08:42:33;;;;;;;;;;;;;;;;;;6295551;28;19916;-80
2023/11/06 08:45:33;;;;;;;;;;;;;;;;;;6301608;28;19914;-79
2023/11/06 08:48:34;;;;;;;;;;;;;;;;;;6298735;28;19923;-78
2023/11/06 08:51:34;;;;;;;;;;;;;;;;;;6295395;28;19955;-78
2023/11/06 08:54:34;;;;;;;;;;;;;;;;;;6292903;28;19992;-78
2023/11/06 08:57:35;;;;;;;;;;;;;;;;;;6298073;28;20361;-78
2023/11/06 09:00:35;;;;;;;;;;;;;;;;;;6301451;28;20019;-78
2023/11/06 09:03:36;;;;;;;;;;;;;;;;;;6316479;28;20034;-78
2023/11/06 09:06:40;;;;;;;;;;;;;;;;;;6294466;28;19912;-80
2023/11/06 09:09:40;;;;;;;;;;;;;;;;;;6296481;28;20480;-79
2023/11/06 09:12:40;;;;;;;;;;;;;;;;;;6285873;28;19917;-80
2023/11/06 09:15:40;;;;;;;;;;;;;;;;;;6289892;28;20435;-83
2023/11/06 09:18:41;;;;;;;;;;;;;;;;;;6329309;28;20435;-80
2023/11/06 09:21:41;;;;;;;;;;;;;;;;;;6293769;28;19913;-80
2023/11/06 09:24:41;;;;;;;;;;;;;;;;;;6286712;28;19912;-81
2023/11/06 09:27:42;;;;;;;;;;;;;;;;;;6313815;28;19955;-79
2023/11/06 09:30:42;;;;;;;;;;;;;;;;;;6293247;28;19923;-79
2023/11/06 09:33:42;;;;;;;;;;;;;;;;;;6295763;28;19942;-80
2023/11/06 09:36:42;;;;;;;;;;;;;;;;;;6299818;28;19960;-84
2023/11/06 09:39:43;;;;;;;;;;;;;;;;;;6299537;28;19936;-82
2023/11/06 09:42:43;;;;;;;;;;;;;;;;;;6298770;28;19967;-81
2023/11/06 09:45:43;;;;;;;;;;;;;;;;;;6282511;28;20012;-83
2023/11/06 09:48:43;;;;;;;;;;;;;;;;;;6289341;28;19926;-79
2023/11/06 09:51:43;;;;;;;;;;;;;;;;;;6276886;28;19921;-80
2023/11/06 09:54:44;;;;;;;;;;;;;;;;;;6275562;28;19913;-80
2023/11/06 09:57:44;;;;;;;;;;;;;;;;;;6286287;28;20372;-81
2023/11/06 10:00:46;;;;;;;;;;;;;;;;;;6294892;28;20010;-81
2023/11/06 10:03:47;;;;;;;;;;;;;;;;;;6297748;28;19921;-80
2023/11/06 10:06:47;;;;;;;;;;;;;;;;;;6293353;28;20018;-80
2023/11/06 10:09:47;;;;;;;;;;;;;;;;;;6274725;28;19909;-82
2023/11/06 10:12:49;;;;;;;;;;;;;;;;;;6288128;28;19952;-81
2023/11/06 10:15:50;;;;;;;;;;;;;;;;;;6301061;28;19922;-80
2023/11/06 10:18:50;;;;;;;;;;;;;;;;;;6280192;28;20326;-80
2023/11/06 10:21:50;;;;;;;;;;;;;;;;;;6289377;28;20399;-87
2023/11/06 10:24:51;;;;;;;;;;;;;;;;;;6294767;28;19915;-80
2023/11/06 10:27:51;;;;;;;;;;;;;;;;;;6293977;28;19908;-80
2023/11/06 10:30:53;;;;;;;;;;;;;;;;;;6292649;28;19912;-80
2023/11/06 10:33:53;;;;;;;;;;;;;;;;;;6286596;28;19917;-80
2023/11/06 10:36:53;;;;;;;;;;;;;;;;;;6279232;28;19920;-79
2023/11/06 10:39:53;;;;;;;;;;;;;;;;;;6298775;28;19944;-80
2023/11/06 10:42:53;;;;;;;;;;;;;;;;;;6293382;28;19999;-81
2023/11/06 10:45:54;;;;;;;;;;;;;;;;;;6297588;28;20273;-79
2023/11/06 10:48:54;;;;;;;;;;;;;;;;;;6298109;28;20369;-80
2023/11/06 10:51:54;;;;;;;;;;;;;;;;;;6295969;28;19916;-79
2023/11/06 10:54:56;;;;;;;;;;;;;;;;;;6280443;28;20088;-80
2023/11/06 10:57:56;;;;;;;;;;;;;;;;;;6286327;28;19928;-84
2023/11/06 11:00:57;;;;;;;;;;;;;;;;;;6282612;28;19913;-80
2023/11/06 11:03:58;;;;;;;;;;;;;;;;;;6295248;28;19917;-81
2023/11/06 11:06:59;;;;;;;;;;;;;;;;;;6296669;28;19920;-81
2023/11/06 11:09:59;;;;;;;;;;;;;;;;;;6321154;28;19947;-80
2023/11/06 11:13:00;;;;;;;;;;;;;;;;;;6282242;28;19916;-80
2023/11/06 11:16:00;;;;;;;;;;;;;;;;;;6293713;28;19921;-80
2023/11/06 11:19:00;;;;;;;;;;;;;;;;;;6272966;28;19916;-80
2023/11/06 11:22:02;;;;;;;;;;;;;;;;;;6292362;28;19912;-80
2023/11/06 11:25:04;;;;;;;;;;;;;;;;;;6311875;28;19918;-80
2023/11/06 11:28:04;;;;;;;;;;;;;;;;;;6295436;28;19913;-81
2023/11/06 11:31:04;;;;;;;;;;;;;;;;;;6289206;28;19921;-80
2023/11/06 11:34:05;;;;;;;;;;;;;;;;;;6272653;28;20326;-84
2023/11/06 11:37:05;;;;;;;;;;;;;;;;;;6277737;28;19931;-80
2023/11/06 11:40:08;;;;;;;;;;;;;;;;;;6297558;28;19932;-80
2023/11/06 11:43:08;;;;;;;;;;;;;;;;;;6297673;28;20284;-82
2023/11/06 11:46:08;;;;;;;;;;;;;;;;;;6295680;28;19912;-80
2023/11/06 11:49:08;;;;;;;;;;;;;;;;;;6277645;28;19928;-85
2023/11/06 11:52:09;;;;;;;;;;;;;;;;;;6297560;28;19913;-82
2023/11/06 11:55:09;;;;;;;;;;;;;;;;;;6272770;28;20392;-83
2023/11/06 11:58:09;;;;;;;;;;;;;;;;;;6272767;28;20285;-83
2023/11/06 12:01:10;;;;;;;;;;;;;;;;;;6284560;28;20380;-82
2023/11/06 12:04:10;;;;;;;;;;;;;;;;;;6296266;28;19963;-85
2023/11/06 12:07:10;;;;;;;;;;;;;;;;;;6310359;28;19913;-82
2023/11/06 12:10:10;;;;;;;;;;;;;;;;;;6320469;28;19965;-82
2023/11/06 12:13:10;;;;;;;;;;;;;;;;;;6308312;28;19916;-83
2023/11/06 12:16:10;;;;;;;;;;;;;;;;;;6297369;28;19965;-83
2023/11/06 12:19:10;;;;;;;;;;;;;;;;;;6286340;28;19966;-84
2023/11/06 12:22:14;;;;;;;;;;;;;;;;;;6297346;28;19908;-82
2023/11/06 12:25:16;;;;;;;;;;;;;;;;;;6296604;28;20395;-82
2023/11/06 12:28:16;;;;;;;;;;;;;;;;;;6297646;28;20277;-82
2023/11/06 12:31:16;;;;;;;;;;;;;;;;;;6285473;28;19928;-83
2023/11/06 12:34:16;;;;;;;;;;;;;;;;;;6296235;28;19917;-82
2023/11/06 12:37:16;;;;;;;;;;;;;;;;;;6296494;28;19912;-82
2023/11/06 12:40:17;;;;;;;;;;;;;;;;;;6295166;28;20388;-82
2023/11/06 12:43:17;;;;;;;;;;;;;;;;;;6297341;28;19915;-82
2023/11/06 12:46:17;;;;;;;;;;;;;;;;;;6297011;28;20297;-82
2023/11/06 12:49:18;;;;;;;;;;;;;;;;;;6302952;28;20451;-82
2023/11/06 12:52:18;;;;;;;;;;;;;;;;;;6272325;28;19967;-82
2023/11/06 12:55:18;;;;;;;;;;;;;;;;;;6273973;28;19917;-82
2023/11/06 12:58:18;;;;;;;;;;;;;;;;;;6295265;28;19913;-83
2023/11/06 13:01:27;;;;;;;;;;;;;;;;;;6298530;28;19913;-82
2023/11/06 13:04:27;;;;;;;;;;;;;;;;;;6295502;28;20003;-83
2023/11/06 13:07:27;;;;;;;;;;;;;;;;;;6278576;28;19912;-83
2023/11/06 13:10:29;;;;;;;;;;;;;;;;;;6276197;28;20264;-83
2023/11/06 13:13:30;;;;;;;;;;;;;;;;;;6312020;28;19927;-84
2023/11/06 13:16:31;;;;;;;;;;;;;;;;;;6294272;28;19917;-83
2023/11/06 13:19:32;;;;;;;;;;;;;;;;;;6297182;28;19912;-83
2023/11/06 13:22:32;;;;;;;;;;;;;;;;;;6301543;28;19955;-84
2023/11/06 13:25:33;;;;;;;;;;;;;;;;;;6299937;28;19915;-83
2023/11/06 13:28:33;;;;;;;;;;;;;;;;;;6282780;28;20345;-82
2023/11/06 13:31:33;;;;;;;;;;;;;;;;;;6315644;28;20411;-82
2023/11/06 13:34:34;;;;;;;;;;;;;;;;;;6299958;28;19991;-82
2023/11/06 13:37:34;;;;;;;;;;;;;;;;;;6300707;28;19912;-82
2023/11/06 13:40:34;;;;;;;;;;;;;;;;;;6300174;28;20332;-82
2023/11/06 13:43:36;;;;;;;;;;;;;;;;;;6277450;28;20336;-82
2023/11/06 13:46:36;;;;;;;;;;;;;;;;;;6276734;28;19909;-81
2023/11/06 13:49:37;;;;;;;;;;;;;;;;;;6275105;28;19920;-81
2023/11/06 13:52:42;;;;;;;;;;;;;;;;;;6279022;28;19912;-81
2023/11/06 13:55:48;;;;;;;;;;;;;;;;;;6300087;28;20021;-81
2023/11/06 13:58:49;;;;;;;;;;;;;;;;;;6294912;28;19912;-84
2023/11/06 14:01:50;;;;;;;;;;;;;;;;;;6299619;28;19916;-83
2023/11/06 14:04:55;;;;;;;;;;;;;;;;;;6297801;28;19960;-82
2023/11/06 14:07:58;;;;;;;;;;;;;;;;;;6300017;28;20435;-80
2023/11/06 14:11:00;;;;;;;;;;;;;;;;;;6299500;28;19955;-80
2023/11/06 14:14:05;;;;;;;;;;;;;;;;;;6299963;28;20273;-80
2023/11/06 14:17:05;;;;;;;;;;;;;;;;;;6298671;28;19916;-80
2023/11/06 14:20:09;;;;;;;;;;;;;;;;;;6313148;28;19955;-80
2023/11/06 14:23:10;;;;;;;;;;;;;;;;;;6297270;28;19912;-88
2023/11/06 14:26:10;;;;;;;;;;;;;;;;;;6297814;28;19920;-80
2023/11/06 14:29:10;;;;;;;;;;;;;;;;;;6299595;28;19937;-80
2023/11/06 14:32:11;;;;;;;;;;;;;;;;;;6298683;28;19952;-80
2023/11/06 14:35:11;;;;;;;;;;;;;;;;;;6297592;28;19917;-80
2023/11/06 14:38:11;;;;;;;;;;;;;;;;;;6298714;28;19920;-83
2023/11/06 14:41:12;;;;;;;;;;;;;;;;;;6292894;28;19916;-80
2023/11/06 14:44:13;;;;;;;;;;;;;;;;;;6274507;28;20293;-80
2023/11/06 14:47:13;;;;;;;;;;;;;;;;;;6272906;28;19908;-80
2023/11/06 14:50:16;;;;;;;;;;;;;;;;;;6287928;28;19966;-80
2023/11/06 14:53:16;;;;;;;;;;;;;;;;;;6288167;28;19999;-80
2023/11/06 14:56:17;;;;;;;;;;;;;;;;;;6273478;28;20396;-80
2023/11/06 14:59:17;;;;;;;;;;;;;;;;;;6282083;28;20430;-80
2023/11/06 15:02:17;;;;;;;;;;;;;;;;;;6296029;28;20399;-80
2023/11/06 15:05:19;;;;;;;;;;;;;;;;;;6278620;28;20011;-80
2023/11/06 15:08:20;;;;;;;;;;;;;;;;;;6298111;28;20422;-80
2023/11/06 15:11:20;;;;;;;;;;;;;;;;;;6285708;28;19917;-80
2023/11/06 15:14:20;;;;;;;;;;;;;;;;;;6291253;28;19917;-80
2023/11/06 15:17:21;;;;;;;;;;;;;;;;;;6303095;28;19924;-80
2023/11/06 15:20:22;;;;;;;;;;;;;;;;;;6297550;28;19912;-80
2023/11/06 15:23:23;;;;;;;;;;;;;;;;;;6297597;28;19912;-87
2023/11/06 15:26:23;;;;;;;;;;;;;;;;;;6292498;28;19959;-80
2023/11/06 15:29:24;;;;;;;;;;;;;;;;;;6281193;28;20000;-80
2023/11/06 15:32:24;;;;;;;;;;;;;;;;;;6298548;28;19916;-81
2023/11/06 15:35:24;;;;;;;;;;;;;;;;;;6295820;28;19966;-80
2023/11/06 15:38:24;;;;;;;;;;;;;;;;;;6303161;28;20320;-80
2023/11/06 15:41:25;;;;;;;;;;;;;;;;;;6273148;28;19913;-80
2023/11/06 15:44:25;;;;;;;;;;;;;;;;;;6272529;28;19917;-80
2023/11/06 15:47:25;;;;;;;;;;;;;;;;;;6295005;28;20003;-80
2023/11/06 15:50:29;;;;;;;;;;;;;;;;;;6284447;28;19923;-80
2023/11/06 15:53:29;;;;;;;;;;;;;;;;;;6297149;28;19920;-80
2023/11/06 15:56:30;;;;;;;;;;;;;;;;;;6297484;28;19920;-80
2023/11/06 15:59:30;;;;;;;;;;;;;;;;;;6278161;28;19958;-80
2023/11/06 16:02:30;;;;;;;;;;;;;;;;;;6308656;28;19920;-80
2023/11/06 16:05:31;;;;;;;;;;;;;;;;;;6295822;28;20350;-80
2023/11/06 16:08:32;;;;;;;;;;;;;;;;;;6297044;28;19912;-80
2023/11/06 16:11:32;;;;;;;;;;;;;;;;;;6297877;28;20387;-80
2023/11/06 16:14:33;;;;;;;;;;;;;;;;;;6288774;28;19916;-80
2023/11/06 16:17:33;;;;;;;;;;;;;;;;;;6295966;28;19920;-81
2023/11/06 16:20:33;;;;;;;;;;;;;;;;;;6296876;28;19908;-79
2023/11/06 16:23:38;;;;;;;;;;;;;;;;;;6297065;28;19939;-81
2023/11/06 16:26:39;;;;;;;;;;;;;;;;;;6297225;28;20340;-80
2023/11/06 16:29:39;;;;;;;;;;;;;;;;;;6297858;28;19909;-79
2023/11/06 16:32:39;;;;;;;;;;;;;;;;;;6297197;28;20312;-80
2023/11/06 16:35:40;;;;;;;;;;;;;;;;;;6294659;28;19924;-80
2023/11/06 16:38:42;;;;;;;;;;;;;;;;;;6296514;28;20386;-80
2023/11/06 16:41:42;;;;;;;;;;;;;;;;;;6296578;28;19908;-80
2023/11/06 16:44:43;;;;;;;;;;;;;;;;;;6297286;28;20329;-80
2023/11/06 16:47:43;;;;;;;;;;;;;;;;;;6272484;28;20012;-81
2023/11/06 16:50:43;;;;;;;;;;;;;;;;;;6279592;28;20242;-81
2023/11/06 16:53:44;;;;;;;;;;;;;;;;;;6296787;28;19919;-80
2023/11/06 16:56:44;;;;;;;;;;;;;;;;;;6308675;28;20269;-80
2023/11/06 16:59:44;;;;;;;;;;;;;;;;;;6275495;28;19982;-81
2023/11/06 17:02:44;;;;;;;;;;;;;;;;;;6314336;28;19995;-80
2023/11/06 17:05:44;;;;;;;;;;;;;;;;;;6301106;28;19952;-80
2023/11/06 17:08:44;;;;;;;;;;;;;;;;;;6281477;28;19920;-80
2023/11/06 17:11:45;;;;;;;;;;;;;;;;;;6309409;28;20257;-80
2023/11/06 17:14:45;;;;;;;;;;;;;;;;;;6297156;28;19916;-80
2023/11/06 17:17:45;;;;;;;;;;;;;;;;;;6316091;28;19908;-85
2023/11/06 17:20:45;;;;;;;;;;;;;;;;;;6286286;28;19913;-80
2023/11/06 17:23:45;;;;;;;;;;;;;;;;;;6300782;28;19956;-79
2023/11/06 17:26:45;;;;;;;;;;;;;;;;;;6295930;28;19955;-80
2023/11/06 17:29:46;;;;;;;;;;;;;;;;;;6299755;28;19913;-80
2023/11/06 17:32:46;;;;;;;;;;;;;;;;;;6300924;28;19918;-80
2023/11/06 17:35:46;;;;;;;;;;;;;;;;;;6299946;28;19912;-80
2023/11/06 17:38:46;;;;;;;;;;;;;;;;;;6299860;28;19967;-82
2023/11/06 17:41:46;;;;;;;;;;;;;;;;;;6294119;28;19909;-81
2023/11/06 17:44:46;;;;;;;;;;;;;;;;;;6300377;28;20458;-84
2023/11/06 17:47:46;;;;;;;;;;;;;;;;;;6300745;28;19909;-81
2023/11/06 17:50:46;;;;;;;;;;;;;;;;;;6298492;28;19913;-81
2023/11/06 17:53:47;;;;;;;;;;;;;;;;;;6300315;28;19927;-81
2023/11/06 17:56:47;;;;;;;;;;;;;;;;;;6295217;28;19923;-80
2023/11/06 17:59:47;;;;;;;;;;;;;;;;;;6289735;28;20054;-81
2023/11/06 18:02:47;;;;;;;;;;;;;;;;;;6297102;28;19942;-82
2023/11/06 18:05:47;;;;;;;;;;;;;;;;;;6298703;28;19909;-82
2023/11/06 18:08:47;;;;;;;;;;;;;;;;;;6300377;28;20424;-80
2023/11/06 18:11:47;;;;;;;;;;;;;;;;;;6298328;28;19919;-81
2023/11/06 18:14:47;;;;;;;;;;;;;;;;;;6287150;28;19916;-81
2023/11/06 18:17:48;;;;;;;;;;;;;;;;;;6281648;28;19928;-82
2023/11/06 18:20:48;;;;;;;;;;;;;;;;;;6286667;28;19913;-81
2023/11/06 18:23:48;;;;;;;;;;;;;;;;;;6273486;28;20346;-81
2023/11/06 18:26:48;;;;;;;;;;;;;;;;;;6287691;28;19963;-81
2023/11/06 18:29:49;;;;;;;;;;;;;;;;;;6279233;28;19913;-81
2023/11/06 18:32:49;;;;;;;;;;;;;;;;;;6275442;28;20004;-80
2023/11/06 18:35:49;;;;;;;;;;;;;;;;;;6303135;28;19913;-80
2023/11/06 18:38:49;;;;;;;;;;;;;;;;;;6290101;28;19943;-80
2023/11/06 18:41:49;;;;;;;;;;;;;;;;;;6291699;28;20314;-80
2023/11/06 18:44:49;;;;;;;;;;;;;;;;;;6275247;28;19908;-80
2023/11/06 18:47:50;;;;;;;;;;;;;;;;;;6286499;28;20011;-80
2023/11/06 18:50:50;;;;;;;;;;;;;;;;;;6295220;28;20246;-80
2023/11/06 18:53:50;;;;;;;;;;;;;;;;;;6324582;28;19912;-80
2023/11/06 18:56:51;;;;;;;;;;;;;;;;;;6302971;28;20386;-80
2023/11/06 18:59:51;;;;;;;;;;;;;;;;;;6299408;28;19920;-80
2023/11/06 19:02:51;;;;;;;;;;;;;;;;;;6315165;28;19913;-80
2023/11/06 19:05:52;;;;;;;;;;;;;;;;;;6300203;28;19948;-80
2023/11/06 19:08:52;;;;;;;;;;;;;;;;;;6299010;28;20384;-80
2023/11/06 19:11:52;;;;;;;;;;;;;;;;;;6277114;28;20257;-81
2023/11/06 19:14:52;;;;;;;;;;;;;;;;;;6282410;28;19920;-85
2023/11/06 19:17:52;;;;;;;;;;;;;;;;;;6278732;28;19966;-80
2023/11/06 19:20:52;;;;;;;;;;;;;;;;;;6281453;28;20388;-81
2023/11/06 19:23:53;;;;;;;;;;;;;;;;;;6283977;28;19925;-81
2023/11/06 19:26:53;;;;;;;;;;;;;;;;;;6301547;28;19939;-81
2023/11/06 19:29:53;;;;;;;;;;;;;;;;;;6283376;28;19944;-84
2023/11/06 19:32:53;;;;;;;;;;;;;;;;;;6280780;28;19917;-84
2023/11/06 19:35:53;;;;;;;;;;;;;;;;;;6287530;28;19969;-86
2023/11/06 19:38:54;;;;;;;;;;;;;;;;;;6290304;28;19924;-80
2023/11/06 19:41:55;;;;;;;;;;;;;;;;;;6291538;28;20343;-80
2023/11/06 19:44:55;;;;;;;;;;;;;;;;;;6285743;28;19912;-79
2023/11/06 19:47:55;;;;;;;;;;;;;;;;;;6280072;28;19921;-81
2023/11/06 19:50:57;;;;;;;;;;;;;;;;;;6291106;28;19913;-81
2023/11/06 19:53:57;;;;;;;;;;;;;;;;;;6303902;28;19920;-80
2023/11/06 19:56:58;;;;;;;;;;;;;;;;;;6305558;28;20353;-80
2023/11/06 19:59:58;;;;;;;;;;;;;;;;;;6305339;28;19912;-81
2023/11/06 20:02:58;;;;;;;;;;;;;;;;;;6323698;28;19913;-81
2023/11/06 20:05:58;;;;;;;;;;;;;;;;;;6323689;28;19908;-81
2023/11/06 20:08:58;;;;;;;;;;;;;;;;;;6323455;28;19908;-81
2023/11/06 20:11:58;;;;;;;;;;;;;;;;;;6323532;28;19919;-81
2023/11/06 20:14:59;;;;;;;;;;;;;;;;;;6318724;28;19912;-81
2023/11/06 20:17:59;;;;;;;;;;;;;;;;;;6273458;28;19909;-82
2023/11/06 20:20:59;;;;;;;;;;;;;;;;;;6287463;28;19912;-81
2023/11/06 20:24:00;;;;;;;;;;;;;;;;;;6296431;28;19915;-80
2023/11/06 20:27:00;;;;;;;;;;;;;;;;;;6290319;28;19963;-80
2023/11/06 20:30:00;;;;;;;;;;;;;;;;;;6301272;28;20343;-80
2023/11/06 20:33:00;;;;;;;;;;;;;;;;;;6276503;28;19916;-81